createdAt,value
2023-04-10T00:01:36.656Z,25.63
2023-04-10T00:06:41.102Z,25.53
2023-04-10T00:11:46.749Z,24.63
2023-04-10T00:16:51.748Z,25.53
2023-04-10T00:21:55.271Z,24.97
2023-04-10T00:27:00.901Z,24.17
2023-04-10T00:32:04.510Z,23.90
2023-04-10T00:37:08.073Z,25.43
2023-04-10T00:42:12.656Z,24.07
2023-04-10T00:47:16.281Z,26.57
2023-04-10T00:52:19.651Z,25.13
2023-04-10T00:57:24.752Z,26.10
2023-04-10T01:02:28.018Z,25.90
2023-04-10T01:07:41.876Z,25.63
2023-04-10T01:13:01.850Z,24.90
2023-04-10T01:18:12.685Z,24.70
2023-04-10T01:23:44.289Z,24.47
2023-04-10T01:29:02.703Z,23.90
2023-04-10T01:34:11.689Z,24.20
2023-04-10T01:39:15.803Z,24.67
2023-04-10T01:44:25.710Z,24.13
2023-04-10T01:49:34.667Z,24.20
2023-04-10T01:54:38.098Z,22.47
2023-04-10T01:59:42.908Z,22.17
2023-04-10T02:04:51.420Z,23.30
2023-04-10T02:10:01.424Z,23.20
2023-04-10T02:15:09.133Z,21.77
2023-04-10T02:20:13.000Z,20.87
2023-04-10T02:25:16.466Z,22.27
2023-04-10T02:30:21.191Z,20.30
2023-04-10T02:35:24.379Z,21.23
2023-04-10T02:40:27.541Z,20.07
2023-04-10T02:52:23.842Z,21.33
2023-04-10T02:57:27.359Z,19.87
2023-04-10T03:02:31.192Z,20.40
2023-04-10T03:07:36.603Z,19.37
2023-04-10T03:12:39.866Z,21.57
2023-04-10T03:17:43.127Z,20.07
2023-04-10T03:22:47.790Z,19.90
2023-04-10T03:27:51.090Z,19.30
2023-04-10T03:32:54.307Z,20.17
2023-04-10T03:37:59.210Z,18.53
2023-04-10T03:43:02.796Z,17.60
2023-04-10T03:48:06.644Z,17.87
2023-04-10T03:53:11.308Z,17.67
2023-04-10T03:58:14.761Z,18.27
2023-04-10T04:03:18.461Z,17.80
2023-04-10T04:08:23.485Z,17.97
2023-04-10T04:13:27.296Z,17.53
2023-04-10T04:18:31.030Z,16.97
2023-04-10T04:23:36.031Z,17.27
2023-04-10T04:28:39.483Z,16.87
2023-04-10T04:33:42.887Z,17.00
2023-04-10T04:38:47.628Z,17.17
2023-04-10T04:43:53.654Z,18.00
2023-04-10T04:48:57.874Z,17.33
2023-04-10T04:54:03.007Z,16.87
2023-04-10T04:59:06.299Z,16.33
2023-04-10T05:04:09.712Z,17.13
2023-04-10T05:09:15.328Z,16.00
2023-04-10T05:14:19.189Z,16.30
2023-04-10T05:19:22.707Z,15.63
2023-04-10T05:24:27.521Z,17.47
2023-04-10T05:29:31.334Z,16.77
2023-04-10T05:34:34.934Z,15.50
2023-04-10T05:39:39.811Z,15.33
2023-04-10T05:44:43.179Z,15.23
2023-04-10T05:49:46.843Z,16.10
2023-04-10T05:54:51.998Z,15.17
2023-04-10T05:59:55.850Z,15.10
2023-04-10T06:04:59.180Z,13.90
2023-04-10T06:10:03.971Z,13.60
2023-04-10T06:15:08.356Z,14.23
2023-04-10T06:20:12.440Z,13.27
2023-04-10T06:25:17.273Z,13.30
2023-04-10T06:30:20.576Z,12.95
2023-04-10T06:35:24.085Z,12.85
2023-04-10T06:40:29.540Z,13.25
2023-04-10T06:45:32.954Z,13.52
2023-04-10T06:50:36.596Z,13.30
2023-04-10T06:55:41.258Z,13.07
2023-04-10T07:00:44.642Z,13.32
2023-04-10T07:05:48.495Z,13.02
2023-04-10T07:10:53.432Z,13.07
2023-04-10T07:15:57.056Z,13.27
2023-04-10T07:21:00.633Z,12.93
2023-04-10T07:26:06.013Z,12.52
2023-04-10T07:31:10.743Z,12.38
2023-04-10T07:36:14.514Z,12.73
2023-04-10T07:41:19.272Z,12.38
2023-04-10T07:46:22.872Z,12.65
2023-04-10T07:51:26.357Z,12.15
2023-04-10T07:56:31.669Z,12.20
2023-04-10T08:01:37.229Z,11.40
2023-04-10T08:06:40.865Z,12.93
2023-04-10T08:11:49.357Z,12.43
2023-04-10T08:16:54.892Z,12.00
2023-04-10T08:22:06.507Z,12.35
2023-04-10T08:27:11.244Z,13.15
2023-04-10T08:32:14.925Z,12.27
2023-04-10T08:37:21.567Z,11.35
2023-04-10T08:42:26.534Z,11.82
2023-04-10T08:47:32.661Z,10.57
2023-04-10T08:52:36.502Z,10.85
2023-04-10T08:57:50.942Z,11.95
2023-04-10T09:02:58.666Z,12.27
2023-04-10T09:08:02.371Z,10.88
2023-04-10T09:13:06.977Z,10.98
2023-04-10T09:18:12.783Z,10.05
2023-04-10T09:23:22.609Z,10.32
2023-04-10T09:28:27.392Z,10.25
2023-04-10T09:33:30.943Z,8.77
2023-04-10T09:38:36.526Z,9.00
2023-04-10T09:43:43.607Z,6.25
2023-04-10T09:48:56.932Z,9.10
2023-04-10T09:54:00.443Z,7.70
2023-04-10T09:59:07.422Z,8.35
2023-04-10T10:04:12.776Z,7.15
2023-04-10T10:09:17.214Z,7.88
2023-04-10T10:14:29.201Z,7.13
2023-04-10T10:19:39.417Z,7.95
2023-04-10T10:24:48.718Z,7.47
2023-04-10T10:29:56.448Z,7.63
2023-04-10T10:35:00.108Z,7.15
2023-04-10T10:40:08.296Z,5.90
2023-04-10T10:45:20.121Z,6.40
2023-04-10T10:50:24.981Z,6.75
2023-04-10T10:55:36.985Z,5.82
2023-04-10T11:01:11.141Z,7.32
2023-04-10T11:06:17.177Z,6.75
2023-04-10T11:11:23.353Z,7.80
2023-04-10T11:16:47.294Z,7.47
2023-04-10T11:22:09.268Z,7.65
2023-04-10T11:27:45.133Z,7.15
2023-04-10T11:32:51.077Z,6.45
2023-04-10T11:37:54.456Z,7.00
2023-04-10T11:43:15.483Z,6.15
2023-04-10T11:48:20.203Z,5.90
2023-04-10T11:53:23.953Z,6.13
2023-04-10T11:58:28.431Z,6.43
2023-04-10T12:03:41.133Z,6.50
2023-04-10T12:08:48.131Z,6.85
2023-04-10T12:13:53.950Z,6.22
2023-04-10T12:18:58.939Z,6.25
2023-04-10T12:24:02.237Z,6.45
2023-04-10T12:29:08.139Z,6.32
2023-04-10T12:34:19.961Z,6.15
2023-04-10T12:39:24.857Z,5.82
2023-04-10T12:44:28.103Z,5.50
2023-04-10T12:49:32.855Z,5.35
2023-04-10T12:54:37.511Z,5.63
2023-04-10T12:59:45.061Z,4.68
2023-04-10T13:04:49.786Z,5.35
2023-04-10T13:09:53.125Z,5.00
2023-04-10T13:14:56.386Z,5.22
2023-04-10T13:20:01.144Z,4.93
2023-04-10T13:25:06.307Z,5.20
2023-04-10T13:30:11.338Z,5.03
2023-04-10T13:35:16.082Z,5.20
2023-04-10T13:40:19.487Z,5.30
2023-04-10T13:45:23.061Z,4.80
2023-04-10T13:50:27.896Z,4.18
2023-04-10T13:55:31.207Z,3.90
2023-04-10T14:00:34.899Z,4.63
2023-04-10T14:05:39.613Z,4.05
2023-04-10T14:10:44.388Z,3.40
2023-04-10T14:15:48.178Z,3.42
2023-04-10T14:20:52.882Z,3.20
2023-04-10T14:25:58.132Z,3.25
2023-04-10T14:31:01.301Z,2.90
2023-04-10T14:36:10.626Z,3.08
2023-04-10T14:41:14.185Z,2.63
2023-04-10T14:46:18.568Z,3.10
2023-04-10T14:51:28.971Z,3.40
2023-04-10T14:56:33.105Z,3.10
2023-04-10T15:01:37.029Z,3.28
2023-04-10T15:06:41.927Z,3.60
2023-04-10T15:11:49.012Z,3.45
2023-04-10T15:16:54.030Z,3.20
2023-04-10T15:21:58.906Z,3.35
2023-04-10T15:27:03.914Z,3.10
2023-04-10T15:32:07.932Z,3.30
2023-04-10T15:37:12.698Z,3.25
2023-04-10T15:42:17.062Z,2.83
2023-04-10T15:47:22.043Z,6.93
2023-04-10T15:52:32.202Z,3.20
2023-04-10T15:57:35.526Z,3.33
2023-04-10T16:02:40.218Z,3.58
2023-04-10T16:07:45.068Z,3.80
2023-04-10T16:12:48.457Z,4.20
2023-04-10T16:17:53.099Z,8.85
2023-04-10T16:22:57.736Z,3.65
2023-04-10T16:28:00.965Z,7.00
2023-04-10T16:33:04.947Z,5.28
2023-04-10T16:38:13.636Z,8.35
2023-04-10T16:43:16.950Z,3.80
2023-04-10T16:48:20.398Z,3.25
2023-04-10T16:53:25.101Z,3.10
2023-04-10T16:58:29.032Z,2.95
2023-04-10T17:03:32.354Z,2.90
2023-04-10T17:08:37.092Z,3.53
2023-04-10T17:13:40.524Z,4.25
2023-04-10T17:18:43.998Z,3.72
2023-04-10T17:23:50.147Z,4.45
2023-04-10T17:28:54.267Z,3.85
2023-04-10T17:33:58.336Z,4.65
2023-04-10T17:39:06.539Z,8.27
2023-04-10T17:44:13.689Z,6.50
2023-04-10T17:49:17.568Z,7.93
2023-04-10T17:54:25.531Z,4.20
2023-04-10T17:59:32.852Z,6.07
2023-04-10T18:04:36.202Z,4.57
2023-04-10T18:09:41.180Z,4.53
2023-04-10T18:14:45.012Z,5.10
2023-04-10T18:19:48.495Z,3.97
2023-04-10T18:24:53.449Z,4.35
2023-04-10T18:29:58.118Z,4.18
2023-04-10T18:35:03.659Z,4.95
2023-04-10T18:40:16.181Z,5.38
2023-04-10T18:45:20.654Z,5.10
2023-04-10T18:50:24.244Z,6.72
2023-04-10T18:55:28.986Z,5.50
2023-04-10T19:00:34.308Z,4.70
2023-04-10T19:05:37.868Z,6.43
2023-04-10T19:10:43.140Z,15.40
2023-04-10T19:15:48.600Z,5.50
2023-04-10T19:20:53.496Z,4.90
2023-04-10T19:26:01.265Z,5.20
2023-04-10T19:31:05.125Z,5.60
2023-04-10T19:36:09.224Z,5.50
2023-04-10T19:41:18.987Z,4.45
2023-04-10T19:46:23.331Z,4.43
2023-04-10T19:51:28.880Z,4.20
2023-04-10T19:56:37.099Z,6.10
2023-04-10T20:01:40.500Z,5.30
2023-04-10T20:06:44.322Z,4.80
2023-04-10T20:11:48.814Z,4.50
2023-04-10T20:16:52.366Z,4.35
2023-04-10T20:22:02.055Z,4.68
2023-04-10T20:27:07.917Z,3.97
2023-04-10T20:32:11.357Z,4.30
2023-04-10T20:37:18.755Z,4.50
2023-04-10T20:42:23.933Z,4.65
2023-04-10T20:47:27.349Z,6.88
2023-04-10T20:52:30.835Z,5.53
2023-04-10T20:57:35.782Z,8.00
2023-04-10T21:02:39.157Z,5.65
2023-04-10T21:07:42.573Z,5.07
2023-04-10T21:12:47.378Z,5.18
2023-04-10T21:17:50.764Z,5.22
2023-04-10T21:22:54.094Z,4.93
2023-04-10T21:28:01.428Z,4.60
2023-04-10T21:33:05.461Z,6.07
2023-04-10T21:38:08.658Z,5.15
2023-04-10T21:43:13.232Z,5.00
2023-04-10T21:48:16.638Z,5.77
2023-04-10T21:53:21.660Z,4.57
2023-04-10T21:58:26.244Z,9.30
2023-04-10T22:03:29.788Z,4.60
2023-04-10T22:08:33.214Z,4.60
2023-04-10T22:13:37.860Z,4.82
2023-04-10T22:18:41.281Z,4.90
2023-04-10T22:23:44.692Z,4.85
2023-04-10T22:28:49.547Z,4.73
2023-04-10T22:33:53.472Z,4.68
2023-04-10T22:38:56.808Z,3.90
2023-04-10T22:44:01.516Z,4.70
2023-04-10T22:49:05.076Z,4.53
2023-04-10T22:54:08.566Z,4.88
2023-04-10T22:59:13.235Z,4.50
2023-04-10T23:04:16.589Z,4.50
2023-04-10T23:09:20.085Z,4.47
2023-04-10T23:14:24.925Z,4.13
2023-04-10T23:19:28.207Z,4.30
2023-04-10T23:24:31.703Z,4.30
2023-04-10T23:29:36.384Z,3.97
2023-04-10T23:34:39.716Z,3.70
2023-04-10T23:39:42.900Z,3.87
2023-04-10T23:44:47.708Z,3.67
2023-04-10T23:49:50.870Z,3.67
2023-04-10T23:54:56.638Z,3.97
